Time;durP1;ratioP1;P1;durP2;ratioP2;P2;SDS_P1;SDS_P2;PMS_P1;PMS_P2;Temp;Humidity;BMP_temperature;BMP_pressure;BME280_temperature;BME280_humidity;BME280_pressure;Samples;Min_cycle;Max_cycle;Signal;HPM_P1;HPM_P2
2022/03/31 00:02:25;;;;;;;44.60;32.97;;;;;;;9.17;78.34;98602.09;5032765;28;20482;-76
2022/03/31 00:04:50;;;;;;;47.70;33.83;;;;;;;9.13;78.26;98609.97;5023416;28;20443;-76
2022/03/31 00:07:15;;;;;;;45.37;33.07;;;;;;;9.11;78.76;98605.94;5046051;28;20467;-76
2022/03/31 00:09:41;;;;;;;43.33;32.10;;;;;;;9.13;78.55;98601.84;5050659;28;20413;-76
2022/03/31 00:12:07;;;;;;;43.73;33.80;;;;;;;9.16;78.46;98604.00;5048000;28;20438;-76
2022/03/31 00:14:32;;;;;;;45.75;33.22;;;;;;;9.21;77.60;98601.28;5049316;28;20504;-76
2022/03/31 00:16:58;;;;;;;44.83;32.72;;;;;;;9.12;78.33;98605.63;5050540;28;20472;-76
2022/03/31 00:19:23;;;;;;;43.43;31.57;;;;;;;9.16;78.22;98598.59;5049155;28;20488;-76
2022/03/31 00:21:48;;;;;;;44.83;33.38;;;;;;;9.22;77.76;98605.56;5049884;28;20397;-76
2022/03/31 00:24:15;;;;;;;44.10;32.90;;;;;;;9.26;77.80;98600.41;5055563;28;20873;-76
2022/03/31 00:26:40;;;;;;;45.45;33.30;;;;;;;9.26;77.70;98595.00;5050712;28;20416;-76
2022/03/31 00:29:06;;;;;;;50.47;34.43;;;;;;;9.20;77.71;98590.72;5048798;28;20531;-76
2022/03/31 00:31:31;;;;;;;46.53;33.87;;;;;;;9.13;77.74;98587.53;5051442;28;20468;-76
2022/03/31 00:33:56;;;;;;;48.53;34.40;;;;;;;9.09;78.86;98589.97;5045306;28;20504;-76
2022/03/31 00:36:22;;;;;;;48.30;33.67;;;;;;;9.12;78.42;98584.00;5047002;28;20453;-76
2022/03/31 00:41:37;;;;;;;46.93;35.27;;;;;;;9.04;78.45;98584.63;5025167;28;20393;-76
2022/03/31 00:44:03;;;;;;;50.03;34.72;;;;;;;9.02;78.64;98576.00;5048398;28;20658;-76
2022/03/31 00:46:29;;;;;;;49.05;35.25;;;;;;;9.01;79.01;98581.69;5051145;28;20459;-76
2022/03/31 00:48:54;;;;;;;49.00;34.72;;;;;;;8.97;78.93;98575.22;5046430;28;20413;-76
2022/03/31 00:51:19;;;;;;;46.43;34.23;;;;;;;8.91;78.84;98577.16;5052832;28;20397;-75
2022/03/31 00:53:45;;;;;;;48.75;35.45;;;;;;;8.85;79.43;98565.56;5053943;28;20413;-76
2022/03/31 00:56:10;;;;;;;51.57;36.93;;;;;;;8.81;79.24;98567.22;5055027;28;20416;-76
2022/03/31 00:58:37;;;;;;;51.05;36.28;;;;;;;8.77;79.22;98568.84;5047701;28;20408;-76
2022/03/31 01:01:02;;;;;;;52.03;35.92;;;;;;;8.73;79.93;98562.38;5038622;28;20444;-76
2022/03/31 01:03:28;;;;;;;49.63;35.67;;;;;;;8.72;79.91;98566.19;5052734;28;20433;-76
2022/03/31 01:05:54;;;;;;;52.33;36.13;;;;;;;8.73;79.60;98551.59;5054782;28;20906;-76
2022/03/31 01:08:21;;;;;;;49.50;34.78;;;;;;;8.76;79.66;98550.22;5052951;28;20409;-76
2022/03/31 01:10:49;;;;;;;51.90;36.03;;;;;;;8.76;79.28;98553.72;5051231;28;20864;-76
2022/03/31 01:13:14;;;;;;;46.70;34.80;;;;;;;8.73;79.62;98550.78;5047778;28;20397;-76
2022/03/31 01:15:40;;;;;;;50.00;36.10;;;;;;;8.65;79.54;98554.88;5054677;28;20898;-76
2022/03/31 01:18:05;;;;;;;51.27;36.57;;;;;;;8.63;79.98;98545.41;5052480;28;20410;-76
2022/03/31 01:20:30;;;;;;;49.03;36.45;;;;;;;8.67;79.69;98550.00;5053147;28;20443;-76
2022/03/31 01:22:56;;;;;;;52.90;35.50;;;;;;;8.68;79.72;98550.81;5050931;28;20408;-76
2022/03/31 01:25:21;;;;;;;47.47;34.60;;;;;;;8.64;79.83;98541.66;5054529;28;20427;-75
2022/03/31 01:27:48;;;;;;;47.13;35.47;;;;;;;8.66;79.99;98540.28;5053431;28;20424;-76
2022/03/31 01:30:17;;;;;;;47.85;34.17;;;;;;;8.65;79.30;98535.16;5045758;28;20413;-76
2022/03/31 01:32:44;;;;;;;48.17;34.35;;;;;;;8.51;80.20;98528.75;5049589;28;20414;-76
2022/03/31 01:35:10;;;;;;;45.75;33.08;;;;;;;8.48;80.13;98530.13;5053016;28;20501;-76
2022/03/31 01:37:36;;;;;;;44.45;32.35;;;;;;;8.55;79.33;98532.53;5053280;28;20421;-76
2022/03/31 01:40:02;;;;;;;45.30;32.47;;;;;;;8.58;78.89;98532.78;5052633;28;20405;-76
2022/03/31 01:42:28;;;;;;;44.33;31.95;;;;;;;8.58;78.86;98527.38;5051325;28;20417;-76
2022/03/31 01:44:54;;;;;;;39.20;29.73;;;;;;;8.64;78.56;98528.16;5049619;28;20416;-76
2022/03/31 01:47:20;;;;;;;38.90;28.00;;;;;;;8.65;79.00;98522.47;5048093;28;20500;-76
2022/03/31 01:49:45;;;;;;;39.83;28.37;;;;;;;8.56;78.36;98520.66;5049903;28;20445;-76
2022/03/31 01:52:11;;;;;;;37.77;28.57;;;;;;;8.52;77.85;98519.59;5052453;28;20421;-76
2022/03/31 01:54:36;;;;;;;37.00;27.47;;;;;;;8.52;78.15;98519.59;5050343;28;20906;-76
2022/03/31 01:57:02;;;;;;;34.58;27.05;;;;;;;8.51;77.47;98517.97;5053220;28;20995;-76
2022/03/31 01:59:38;;;;;;;31.40;26.53;;;;;;;8.48;77.69;98513.13;5052379;28;20385;-76
2022/03/31 02:02:05;;;;;;;30.73;24.33;;;;;;;8.40;77.85;98514.50;5046383;28;20749;-76
2022/03/31 02:04:30;;;;;;;29.23;23.35;;;;;;;8.37;77.55;98508.84;5041468;28;20393;-76
2022/03/31 02:06:56;;;;;;;25.85;21.42;;;;;;;8.39;77.48;98510.22;5052659;28;20915;-76
2022/03/31 02:09:21;;;;;;;24.03;21.03;;;;;;;8.41;76.40;98509.91;5038660;28;20465;-76
2022/03/31 02:11:46;;;;;;;24.60;19.77;;;;;;;8.46;75.97;98496.41;5050726;28;20401;-76
2022/03/31 02:14:13;;;;;;;23.23;20.67;;;;;;;8.37;75.55;98493.47;5048827;28;20465;-76
2022/03/31 02:16:38;;;;;;;22.20;19.80;;;;;;;8.26;75.45;98490.00;5045224;28;20413;-75
2022/03/31 02:19:03;;;;;;;22.13;19.73;;;;;;;8.32;75.56;98493.50;5050746;28;20410;-76
2022/03/31 02:21:29;;;;;;;21.17;18.87;;;;;;;8.39;75.50;98483.22;5051087;28;20414;-76
2022/03/31 02:23:54;;;;;;;20.42;18.23;;;;;;;8.41;75.15;98491.03;5046131;28;20441;-76
2022/03/31 02:26:20;;;;;;;19.47;17.37;;;;;;;8.39;75.04;98479.72;5053612;28;20402;-76
2022/03/31 02:28:45;;;;;;;20.70;18.37;;;;;;;8.32;74.00;98477.31;5050934;28;20405;-76
2022/03/31 02:31:11;;;;;;;20.90;18.77;;;;;;;8.23;74.73;98466.25;5045748;28;20527;-76
2022/03/31 02:33:36;;;;;;;22.23;18.63;;;;;;;8.21;75.19;98467.63;5051186;28;20768;-76
2022/03/31 02:36:02;;;;;;;19.40;17.40;;;;;;;8.23;74.38;98462.75;5053413;28;21015;-76
2022/03/31 02:38:27;;;;;;;19.60;17.63;;;;;;;8.31;74.67;98467.59;5040049;28;20510;-76
2022/03/31 02:40:53;;;;;;;20.27;18.23;;;;;;;8.30;74.28;98466.78;5048969;28;20406;-76
2022/03/31 02:43:18;;;;;;;19.63;17.53;;;;;;;8.18;74.64;98465.47;5051163;28;20413;-76
2022/03/31 02:45:43;;;;;;;19.30;17.30;;;;;;;8.16;74.29;98463.06;5057428;28;20416;-76
2022/03/31 02:48:09;;;;;;;18.53;16.63;;;;;;;8.23;74.32;98466.25;5041802;28;20510;-76
2022/03/31 02:50:34;;;;;;;18.97;17.07;;;;;;;8.27;74.73;98463.81;5047636;28;20413;-76
2022/03/31 02:55:44;;;;;;;19.33;17.40;;;;;;;8.26;73.78;98465.72;5041326;28;20416;-76
2022/03/31 02:58:09;;;;;;;20.08;17.98;;;;;;;8.27;74.44;98459.22;5046882;28;20405;-76
2022/03/31 03:00:36;;;;;;;18.67;16.83;;;;;;;8.23;74.06;98458.16;5050631;28;20517;-76
2022/03/31 03:03:03;;;;;;;18.73;16.77;;;;;;;8.24;74.29;98451.69;5047372;28;20409;-76
2022/03/31 03:05:29;;;;;;;19.23;17.30;;;;;;;8.21;75.38;98457.63;5050925;28;20456;-76
2022/03/31 03:07:55;;;;;;;19.10;17.10;;;;;;;8.17;75.77;98453.88;5043273;28;20438;-76
2022/03/31 03:10:20;;;;;;;19.95;17.92;;;;;;;8.12;76.35;98450.41;5051974;28;20377;-76
2022/03/31 03:12:47;;;;;;;20.23;18.17;;;;;;;8.10;77.01;98447.97;5051562;28;20771;-76
2022/03/31 03:15:13;;;;;;;21.20;19.00;;;;;;;8.05;77.15;98445.31;5051155;28;20512;-76
2022/03/31 03:17:43;;;;;;;21.20;19.05;;;;;;;8.08;76.78;98441.25;5054079;28;20415;-76
2022/03/31 03:20:13;;;;;;;22.05;19.75;;;;;;;8.03;77.09;98439.41;5046419;28;20452;-76
2022/03/31 03:22:46;;;;;;;21.55;19.35;;;;;;;8.00;77.06;98434.53;5042828;28;20409;-76
2022/03/31 03:25:12;;;;;;;21.27;19.17;;;;;;;7.94;76.96;98443.72;5044299;28;20405;-76
2022/03/31 03:27:40;;;;;;;23.27;20.90;;;;;;;7.94;77.76;98440.22;5049930;28;20824;-76
2022/03/31 03:30:06;;;;;;;21.33;19.15;;;;;;;7.92;77.58;98435.13;5049267;28;20468;-76
2022/03/31 03:32:32;;;;;;;22.65;20.35;;;;;;;7.94;77.03;98443.72;5045524;28;20769;-76
2022/03/31 03:34:58;;;;;;;21.42;19.25;;;;;;;7.90;77.00;98442.69;5041037;28;20385;-76
2022/03/31 03:37:23;;;;;;;22.07;19.87;;;;;;;7.92;77.13;98442.41;5051075;28;20422;-76
2022/03/31 03:39:49;;;;;;;22.50;20.10;;;;;;;7.73;76.88;98434.13;5047678;28;20413;-75
2022/03/31 03:42:15;;;;;;;21.63;19.47;;;;;;;7.77;77.22;98444.06;5050025;28;20406;-76
2022/03/31 03:44:40;;;;;;;21.40;19.00;;;;;;;7.68;76.94;98440.34;5048746;28;20409;-76
2022/03/31 03:47:06;;;;;;;22.43;20.13;;;;;;;7.68;76.87;98443.03;5045429;28;20413;-75
2022/03/31 03:49:31;;;;;;;23.87;20.50;;;;;;;7.71;76.63;98449.75;5038259;28;20464;-75
2022/03/31 03:51:57;;;;;;;23.23;20.83;;;;;;;7.71;77.18;98449.75;5048587;28;20442;-75
2022/03/31 03:54:22;;;;;;;26.25;21.58;;;;;;;7.67;76.95;98449.50;5050839;28;20390;-76
2022/03/31 03:56:47;;;;;;;24.07;21.50;;;;;;;7.62;77.01;98448.72;5041790;28;20802;-76
2022/03/31 03:59:12;;;;;;;25.33;22.73;;;;;;;7.62;77.23;98446.81;5047416;28;20405;-75
2022/03/31 04:01:38;;;;;;;24.13;21.53;;;;;;;7.62;77.10;98441.44;5047226;28;20459;-76
2022/03/31 04:04:04;;;;;;;25.03;22.40;;;;;;;7.64;77.76;98449.25;5041502;28;20780;-76
2022/03/31 04:06:30;;;;;;;22.38;19.95;;;;;;;7.61;77.56;98455.97;5044326;28;20436;-76
2022/03/31 04:08:55;;;;;;;23.27;20.87;;;;;;;7.52;77.66;98449.53;5047165;28;20892;-75
2022/03/31 04:11:20;;;;;;;23.23;20.35;;;;;;;7.51;76.87;98453.31;5035167;28;20413;-75
2022/03/31 04:13:46;;;;;;;26.83;22.10;;;;;;;7.58;77.76;98447.63;5033075;28;20783;-76
2022/03/31 04:16:11;;;;;;;24.48;21.85;;;;;;;7.47;77.47;98457.66;5033050;28;20411;-75
2022/03/31 04:18:37;;;;;;;24.00;21.40;;;;;;;7.48;77.95;98448.47;5034404;28;20413;-75
2022/03/31 04:21:02;;;;;;;26.93;22.63;;;;;;;7.50;77.81;98443.63;5041291;28;20927;-75
2022/03/31 04:23:28;;;;;;;25.00;21.47;;;;;;;7.50;77.38;98445.53;5036606;28;20409;-75
2022/03/31 04:25:54;;;;;;;25.13;22.42;;;;;;;7.40;78.54;98448.25;5035242;28;20397;-76
2022/03/31 04:28:19;;;;;;;27.53;22.63;;;;;;;7.29;78.51;98444.75;5030598;28;20411;-75
2022/03/31 04:30:45;;;;;;;22.60;20.13;;;;;;;7.37;78.35;98444.22;5032116;28;20797;-75
2022/03/31 04:33:10;;;;;;;24.88;21.88;;;;;;;7.37;77.82;98443.41;5045150;28;20432;-76
2022/03/31 04:35:36;;;;;;;25.03;22.33;;;;;;;7.26;78.40;98438.03;5034651;28;20417;-75
2022/03/31 04:38:04;;;;;;;24.93;22.23;;;;;;;7.21;78.52;98439.94;5033339;28;20430;-75
2022/03/31 04:40:30;;;;;;;31.15;24.98;;;;;;;7.17;78.70;98434.28;5030740;28;20775;-76
2022/03/31 04:42:55;;;;;;;30.73;25.08;;;;;;;7.09;79.04;98426.72;5035595;28;20414;-76
2022/03/31 04:45:21;;;;;;;31.57;26.30;;;;;;;6.97;79.50;98420.81;5031643;28;20963;-76
2022/03/31 04:47:46;;;;;;;30.40;26.40;;;;;;;6.96;80.07;98419.22;5036119;28;20470;-75
2022/03/31 04:50:13;;;;;;;29.17;25.67;;;;;;;7.01;80.11;98427.28;5033610;28;20410;-76
2022/03/31 04:52:39;;;;;;;28.70;24.65;;;;;;;6.93;80.08;98425.13;5032151;28;20512;-75
2022/03/31 04:55:05;;;;;;;30.17;25.50;;;;;;;6.90;80.15;98428.38;5032075;28;20499;-76
2022/03/31 04:57:30;;;;;;;28.58;25.25;;;;;;;6.93;80.18;98427.81;5028228;28;20557;-76
2022/03/31 04:59:56;;;;;;;29.17;24.87;;;;;;;6.81;80.32;98424.59;5035547;28;20882;-76
2022/03/31 05:02:22;;;;;;;29.37;24.60;;;;;;;6.75;80.44;98423.78;5035508;28;20481;-75
2022/03/31 05:04:47;;;;;;;30.88;25.00;;;;;;;6.81;80.85;98430.00;5032444;28;20819;-75
2022/03/31 05:07:13;;;;;;;31.70;27.27;;;;;;;6.89;80.87;98428.63;5033428;28;20468;-74
2022/03/31 05:09:39;;;;;;;30.97;27.60;;;;;;;6.95;80.58;98428.34;5032796;28;20852;-74
2022/03/31 05:12:05;;;;;;;31.92;26.65;;;;;;;6.95;80.80;98435.66;5034588;28;20400;-75
2022/03/31 05:14:31;;;;;;;37.25;28.58;;;;;;;6.96;80.10;98429.97;5029515;28;21178;-75
2022/03/31 05:16:56;;;;;;;33.83;28.77;;;;;;;6.91;81.20;98421.91;5029646;28;20403;-74
2022/03/31 05:19:21;;;;;;;31.70;27.63;;;;;;;6.92;80.37;98423.50;5029338;28;20882;-76
2022/03/31 05:21:47;;;;;;;30.67;26.13;;;;;;;6.88;80.54;98422.47;5032041;28;20437;-76
2022/03/31 05:24:14;;;;;;;33.93;27.63;;;;;;;6.86;80.81;98423.78;5026399;28;20397;-75
2022/03/31 05:26:39;;;;;;;36.10;28.20;;;;;;;6.87;80.74;98426.22;5021624;28;20407;-75
2022/03/31 05:29:05;;;;;;;37.57;28.80;;;;;;;6.96;80.75;98423.78;5027321;28;20429;-75
2022/03/31 05:31:30;;;;;;;39.88;29.48;;;;;;;6.94;80.83;98423.25;5025889;28;20424;-75
2022/03/31 05:33:55;;;;;;;34.77;28.47;;;;;;;6.88;81.41;98421.66;5025439;28;20410;-75
2022/03/31 05:36:20;;;;;;;40.83;31.27;;;;;;;6.87;81.34;98425.41;5020190;28;20825;-76
2022/03/31 05:38:46;;;;;;;43.20;31.43;;;;;;;6.82;82.08;98430.81;5028574;28;20488;-75
2022/03/31 05:41:11;;;;;;;41.40;31.50;;;;;;;6.82;81.99;98417.34;5038126;28;20405;-74
2022/03/31 05:43:36;;;;;;;39.43;31.60;;;;;;;6.77;82.46;98424.34;5033357;28;20415;-75
2022/03/31 05:46:02;;;;;;;44.23;33.20;;;;;;;6.74;82.60;98416.00;5038922;28;20480;-74
2022/03/31 05:48:28;;;;;;;41.30;31.83;;;;;;;6.65;82.62;98413.00;5032992;28;20409;-74
2022/03/31 05:50:53;;;;;;;38.30;30.55;;;;;;;6.60;82.88;98409.53;5026904;28;20409;-74
2022/03/31 05:53:19;;;;;;;38.87;31.53;;;;;;;6.68;82.98;98409.00;5036669;28;20463;-75
2022/03/31 05:55:45;;;;;;;43.17;31.83;;;;;;;6.75;83.01;98406.84;5036804;28;22255;-75
2022/03/31 05:58:10;;;;;;;39.85;30.48;;;;;;;6.68;82.66;98409.81;5037528;28;20413;-74
2022/03/31 06:00:36;;;;;;;44.03;32.13;;;;;;;6.72;82.52;98416.25;5031677;28;21143;-75
2022/03/31 06:03:01;;;;;;;41.28;31.92;;;;;;;6.78;82.19;98420.53;5027461;28;20409;-75
2022/03/31 06:05:27;;;;;;;39.67;31.57;;;;;;;6.82;82.27;98417.34;5034462;28;20779;-75
2022/03/31 06:07:52;;;;;;;40.00;30.05;;;;;;;6.84;82.15;98428.63;5034808;28;20425;-76
2022/03/31 06:10:19;;;;;;;39.78;31.80;;;;;;;6.83;82.31;98424.31;5030318;28;20418;-75
2022/03/31 06:12:44;;;;;;;38.85;29.98;;;;;;;6.82;82.54;98428.13;5034996;28;20413;-75
2022/03/31 06:15:10;;;;;;;38.70;31.45;;;;;;;6.87;82.31;98425.41;5035031;28;20401;-75
2022/03/31 06:17:39;;;;;;;38.35;30.45;;;;;;;6.97;82.13;98423.53;5037879;28;20452;-79
2022/03/31 06:20:06;;;;;;;38.05;29.92;;;;;;;6.88;81.78;98432.41;5033516;28;20413;-78
2022/03/31 06:22:31;;;;;;;38.05;29.90;;;;;;;6.85;82.46;98438.34;5031904;28;20411;-83
2022/03/31 06:24:56;;;;;;;36.10;30.07;;;;;;;6.96;82.22;98429.97;5032857;28;20843;-80
2022/03/31 06:27:22;;;;;;;35.77;29.10;;;;;;;7.04;81.80;98423.25;5032003;28;20427;-79
2022/03/31 06:29:48;;;;;;;38.73;30.23;;;;;;;6.95;81.37;98428.34;5033722;28;20494;-79
2022/03/31 06:32:14;;;;;;;35.58;29.10;;;;;;;6.90;81.81;98424.88;5030963;28;20419;-80
2022/03/31 06:34:40;;;;;;;42.75;31.58;;;;;;;6.92;82.24;98418.13;5033313;28;20414;-79
2022/03/31 06:37:05;;;;;;;34.85;29.40;;;;;;;6.98;81.80;98418.94;5034084;28;20419;-80
2022/03/31 06:39:31;;;;;;;36.83;29.60;;;;;;;7.01;81.68;98411.13;5030734;28;20419;-79
2022/03/31 06:41:57;;;;;;;35.70;28.63;;;;;;;7.02;81.83;98407.34;5031874;28;20406;-79
2022/03/31 06:44:22;;;;;;;36.25;29.00;;;;;;;6.99;81.71;98402.50;5030198;28;20432;-79
2022/03/31 06:46:47;;;;;;;39.43;30.23;;;;;;;6.95;82.44;98397.94;5034285;28;20409;-79
2022/03/31 06:49:13;;;;;;;36.77;29.97;;;;;;;6.98;82.10;98394.72;5034588;28;20422;-79
2022/03/31 06:51:38;;;;;;;36.90;29.60;;;;;;;7.03;81.86;98397.38;5030502;28;20488;-79
2022/03/31 06:54:04;;;;;;;35.95;29.90;;;;;;;7.07;82.18;98395.75;5031271;28;20940;-79
2022/03/31 06:56:31;;;;;;;40.37;31.20;;;;;;;6.99;81.73;98394.41;5032869;28;20411;-79
2022/03/31 06:58:58;;;;;;;38.65;30.88;;;;;;;7.09;81.72;98399.78;5036573;28;20409;-80
2022/03/31 07:01:24;;;;;;;41.42;30.80;;;;;;;7.12;81.61;98410.03;5039684;28;20439;-80
2022/03/31 07:03:49;;;;;;;38.78;29.75;;;;;;;7.22;81.91;98411.88;5028786;28;20888;-80
2022/03/31 07:06:16;;;;;;;40.53;30.90;;;;;;;7.36;81.37;98412.13;5028115;28;20477;-80
2022/03/31 07:08:41;;;;;;;37.40;29.50;;;;;;;7.45;80.91;98415.88;5033376;28;20443;-80
2022/03/31 07:11:07;;;;;;;41.67;30.53;;;;;;;7.36;80.65;98417.53;5030427;28;20411;-80
2022/03/31 07:13:33;;;;;;;36.88;28.08;;;;;;;7.40;80.96;98413.19;5035049;28;20485;-80
2022/03/31 07:15:58;;;;;;;36.33;27.33;;;;;;;7.43;80.67;98415.34;5030770;28;20417;-80
2022/03/31 07:18:23;;;;;;;36.13;27.63;;;;;;;7.43;80.40;98410.78;5033570;28;20902;-80
2022/03/31 07:20:50;;;;;;;34.47;28.00;;;;;;;7.40;80.94;98418.59;5030892;28;20411;-79
2022/03/31 07:23:17;;;;;;;33.00;26.77;;;;;;;7.49;80.72;98414.25;5034372;28;20472;-79
2022/03/31 07:25:43;;;;;;;36.00;27.92;;;;;;;7.48;80.10;98413.44;5029221;28;20920;-79
2022/03/31 07:28:08;;;;;;;35.63;29.03;;;;;;;7.57;80.47;98405.59;5034502;28;20430;-80
2022/03/31 07:30:33;;;;;;;39.07;28.70;;;;;;;7.59;80.16;98406.94;5031989;28;20420;-79
2022/03/31 07:33:01;;;;;;;37.00;27.67;;;;;;;7.62;80.04;98411.78;5040041;28;20421;-80
2022/03/31 07:35:29;;;;;;;36.92;28.60;;;;;;;7.66;80.31;98417.44;5029178;28;20413;-80
2022/03/31 07:37:55;;;;;;;38.85;31.17;;;;;;;7.75;81.13;98416.59;5026540;28;20423;-80
2022/03/31 07:40:21;;;;;;;34.30;28.25;;;;;;;7.80;80.36;98415.75;5025585;28;20492;-79
2022/03/31 07:42:48;;;;;;;34.38;28.45;;;;;;;7.71;80.40;98412.81;5034750;28;20498;-80
2022/03/31 07:45:14;;;;;;;31.95;26.20;;;;;;;7.73;79.53;98413.38;5028638;28;20407;-80
2022/03/31 07:47:41;;;;;;;34.40;26.90;;;;;;;7.63;79.30;98420.69;5030094;28;20442;-79
2022/03/31 07:50:09;;;;;;;32.47;25.63;;;;;;;7.56;79.13;98414.78;5028252;28;20419;-79
2022/03/31 07:52:35;;;;;;;36.75;29.38;;;;;;;7.67;79.61;98416.34;5030347;28;20405;-76
2022/03/31 07:55:00;;;;;;;33.92;28.05;;;;;;;7.74;80.09;98417.66;5031266;28;20492;-76
2022/03/31 07:57:26;;;;;;;32.53;27.25;;;;;;;7.86;79.90;98408.44;5030219;28;21029;-76
2022/03/31 07:59:51;;;;;;;34.67;28.43;;;;;;;7.83;79.90;98418.72;5034473;28;20540;-76
2022/03/31 08:02:16;;;;;;;33.63;27.53;;;;;;;7.89;79.33;98402.50;5022697;28;20420;-76
2022/03/31 08:04:42;;;;;;;33.28;27.33;;;;;;;8.01;79.14;98408.38;5033207;28;20418;-77
2022/03/31 08:07:08;;;;;;;31.15;25.85;;;;;;;8.06;78.66;98408.34;5030505;28;20504;-77
2022/03/31 08:09:33;;;;;;;32.20;26.90;;;;;;;8.10;78.93;98402.09;5051699;28;20409;-77
2022/03/31 08:11:58;;;;;;;31.77;25.53;;;;;;;8.08;78.76;98392.69;5032796;28;20881;-77
2022/03/31 08:14:24;;;;;;;28.87;25.20;;;;;;;8.29;77.55;98391.53;5031592;28;20425;-77
2022/03/31 08:16:51;;;;;;;29.95;25.15;;;;;;;8.30;76.81;98399.31;5026323;28;20516;-77
2022/03/31 08:19:18;;;;;;;32.40;26.53;;;;;;;8.56;76.68;98388.38;5032123;28;20397;-76
2022/03/31 08:21:44;;;;;;;29.90;25.40;;;;;;;8.69;76.85;98379.63;5028927;28;20402;-76
2022/03/31 08:24:11;;;;;;;31.75;25.17;;;;;;;8.89;76.96;98378.63;5030115;28;20761;-76
2022/03/31 08:26:37;;;;;;;29.75;24.55;;;;;;;9.14;75.65;98386.47;5031101;28;20439;-77
2022/03/31 08:29:03;;;;;;;29.17;25.85;;;;;;;9.27;75.42;98386.63;5030239;28;20912;-76
2022/03/31 08:31:29;;;;;;;27.40;24.00;;;;;;;9.36;75.20;98379.47;5030761;28;20939;-77
2022/03/31 08:33:54;;;;;;;26.92;23.92;;;;;;;9.37;74.97;98381.09;5031383;28;20420;-77
2022/03/31 08:36:20;;;;;;;31.77;25.43;;;;;;;9.15;74.94;98385.41;5031545;28;20456;-77
2022/03/31 08:38:46;;;;;;;30.07;25.00;;;;;;;9.04;75.22;98389.28;5028546;28;20972;-76
2022/03/31 08:41:13;;;;;;;30.75;25.45;;;;;;;8.98;75.34;98395.84;5028664;28;20407;-77
2022/03/31 08:43:42;;;;;;;26.13;23.35;;;;;;;8.97;74.90;98395.03;5028656;28;20413;-77
2022/03/31 08:46:10;;;;;;;33.15;24.52;;;;;;;9.09;75.85;98392.72;5029153;28;20427;-76
2022/03/31 08:48:37;;;;;;;28.33;23.17;;;;;;;9.06;75.88;98392.50;5031631;28;21286;-77
2022/03/31 08:51:02;;;;;;;26.55;23.50;;;;;;;9.32;75.49;98385.75;5033175;28;20911;-76
2022/03/31 08:53:27;;;;;;;27.90;24.47;;;;;;;9.22;74.81;98396.69;5034076;28;20489;-77
2022/03/31 08:55:53;;;;;;;27.13;23.43;;;;;;;9.43;74.73;98387.25;5030987;28;20830;-77
2022/03/31 08:58:20;;;;;;;26.23;23.40;;;;;;;9.34;73.67;98391.69;5028751;28;20421;-77
2022/03/31 09:00:49;;;;;;;28.10;23.95;;;;;;;9.55;74.08;98392.28;5033212;28;20413;-79
2022/03/31 09:03:16;;;;;;;26.85;23.95;;;;;;;9.75;73.12;98390.09;5030146;28;20417;-76
2022/03/31 09:05:45;;;;;;;27.33;24.25;;;;;;;9.71;73.59;98383.69;5027586;28;20458;-76
2022/03/31 09:08:12;;;;;;;26.60;23.83;;;;;;;9.74;73.03;98380.41;5032194;28;20421;-79
2022/03/31 09:10:44;;;;;;;26.77;23.02;;;;;;;9.99;73.12;98378.44;5032910;28;20453;-78
2022/03/31 09:13:20;;;;;;;27.37;24.47;;;;;;;10.09;72.59;98371.00;5035624;28;20401;-78
2022/03/31 09:15:57;;;;;;;28.70;25.35;;;;;;;10.36;71.92;98375.78;5033072;28;20438;-77
2022/03/31 09:18:25;;;;;;;27.40;24.50;;;;;;;10.43;70.79;98378.13;5035803;28;20410;-77
2022/03/31 09:20:53;;;;;;;35.05;28.92;;;;;;;10.34;71.12;98378.78;5035629;28;20409;-78
2022/03/31 09:23:24;;;;;;;30.38;26.85;;;;;;;10.15;71.11;98377.97;5035276;28;20412;-78
2022/03/31 09:25:53;;;;;;;29.80;25.27;;;;;;;10.15;71.02;98388.00;5034087;28;21044;-77
2022/03/31 09:28:24;;;;;;;30.33;24.87;;;;;;;10.22;71.07;98381.13;5035678;28;20493;-78
2022/03/31 09:30:52;;;;;;;26.73;23.92;;;;;;;10.29;69.64;98383.47;5034748;28;21469;-78
2022/03/31 09:33:29;;;;;;;32.00;26.67;;;;;;;10.13;69.77;98382.03;5035282;28;20444;-78
2022/03/31 09:36:04;;;;;;;32.35;26.00;;;;;;;10.29;70.68;98384.28;5036499;28;21590;-78
2022/03/31 09:38:32;;;;;;;27.63;24.00;;;;;;;10.54;70.69;98374.94;5035274;28;20839;-77
2022/03/31 09:40:58;;;;;;;28.45;25.45;;;;;;;10.31;70.06;98379.38;5031609;28;20405;-77
2022/03/31 09:43:27;;;;;;;25.83;23.17;;;;;;;10.34;69.25;98383.41;5034455;28;20415;-78
2022/03/31 09:45:52;;;;;;;26.10;23.50;;;;;;;10.21;70.05;98382.22;5037956;28;20460;-78
2022/03/31 09:48:19;;;;;;;25.63;23.03;;;;;;;10.18;69.60;98380.09;5030235;28;20450;-78
2022/03/31 09:50:46;;;;;;;26.27;23.50;;;;;;;10.13;70.94;98379.34;5032881;28;20828;-78
2022/03/31 09:53:12;;;;;;;25.50;22.95;;;;;;;10.14;71.27;98379.06;5033114;28;20476;-78
2022/03/31 09:55:38;;;;;;;24.92;22.33;;;;;;;10.15;70.16;98385.28;5035551;28;20472;-78
2022/03/31 09:58:04;;;;;;;23.92;21.50;;;;;;;10.18;71.26;98384.69;5040953;28;20906;-78
2022/03/31 10:00:30;;;;;;;24.27;20.80;;;;;;;10.14;70.49;98389.88;5033637;28;20454;-77
2022/03/31 10:02:55;;;;;;;22.77;20.55;;;;;;;9.92;71.04;98381.50;5034246;28;20407;-78
2022/03/31 10:05:21;;;;;;;24.37;21.97;;;;;;;9.95;70.43;98378.22;5033838;28;20475;-78
2022/03/31 10:07:48;;;;;;;22.93;20.60;;;;;;;9.99;69.89;98370.31;5035550;28;20459;-78
2022/03/31 10:10:13;;;;;;;22.48;20.17;;;;;;;9.98;69.62;98369.53;5032386;28;20464;-78
2022/03/31 10:12:55;;;;;;;25.38;22.90;;;;;;;9.89;70.55;98366.66;5033064;28;20407;-77
2022/03/31 10:15:28;;;;;;;23.65;21.02;;;;;;;9.81;69.45;98366.53;5034147;28;20514;-78
2022/03/31 10:17:54;;;;;;;23.38;20.95;;;;;;;9.88;69.91;98366.94;5032037;28;20949;-79
2022/03/31 10:20:21;;;;;;;22.23;19.92;;;;;;;9.97;70.28;98359.00;5033705;28;20402;-78
2022/03/31 10:25:46;;;;;;;21.02;19.00;;;;;;;10.64;68.07;98347.69;5049805;28;20574;-78
2022/03/31 10:28:14;;;;;;;21.47;19.33;;;;;;;11.44;65.12;98358.19;5047009;28;20770;-77
2022/03/31 10:30:51;;;;;;;21.33;19.17;;;;;;;11.63;63.92;98358.88;5029921;28;20399;-78
2022/03/31 10:33:33;;;;;;;21.58;19.48;;;;;;;11.68;63.53;98357.97;5032167;28;20421;-78
2022/03/31 10:36:12;;;;;;;20.38;18.30;;;;;;;11.55;63.89;98350.66;5034846;28;20932;-78
2022/03/31 10:38:51;;;;;;;19.58;17.63;;;;;;;11.26;64.15;98359.88;5033599;28;20414;-78
2022/03/31 10:41:17;;;;;;;20.67;18.45;;;;;;;11.18;64.41;98362.47;5033621;28;20751;-79
2022/03/31 10:43:47;;;;;;;21.40;19.40;;;;;;;11.14;64.89;98362.28;5035508;28;20423;-79
2022/03/31 10:46:14;;;;;;;22.95;20.75;;;;;;;11.06;65.68;98365.69;5038942;28;20417;-77
2022/03/31 10:48:51;;;;;;;21.17;19.05;;;;;;;10.83;66.22;98366.63;5034358;28;20935;-78
2022/03/31 10:51:17;;;;;;;20.77;18.50;;;;;;;10.60;66.70;98370.28;5039267;28;20783;-78
2022/03/31 10:53:49;;;;;;;20.30;18.20;;;;;;;10.44;66.46;98366.19;5039710;28;20423;-78
2022/03/31 10:56:20;;;;;;;19.67;17.57;;;;;;;10.27;66.49;98366.72;5033855;28;20786;-77
2022/03/31 10:58:48;;;;;;;20.42;18.35;;;;;;;10.27;67.00;98364.03;5039088;28;20827;-78
2022/03/31 11:01:14;;;;;;;20.88;18.77;;;;;;;10.15;67.32;98352.81;5034456;28;20411;-78
2022/03/31 11:03:40;;;;;;;21.48;19.33;;;;;;;10.27;67.53;98356.69;5036959;28;20461;-78
2022/03/31 11:06:08;;;;;;;20.53;18.33;;;;;;;10.48;66.50;98338.22;5031321;28;20438;-76
2022/03/31 11:08:42;;;;;;;20.35;18.23;;;;;;;10.60;65.93;98344.00;5036917;28;20405;-78
2022/03/31 11:11:08;;;;;;;19.35;17.40;;;;;;;10.74;66.13;98334.00;5032750;28;20798;-78
2022/03/31 11:13:35;;;;;;;20.42;18.42;;;;;;;10.73;65.62;98326.19;5032669;28;20411;-78
2022/03/31 11:16:01;;;;;;;19.33;17.42;;;;;;;10.91;65.91;98323.41;5033904;28;20417;-78
2022/03/31 11:18:56;;;;;;;20.23;18.05;;;;;;;11.15;65.41;98323.22;5042532;28;20425;-78
2022/03/31 11:21:23;;;;;;;18.75;16.95;;;;;;;11.08;65.65;98322.00;5040566;28;20507;-78
2022/03/31 11:23:49;;;;;;;19.88;17.85;;;;;;;10.87;64.09;98316.16;5031291;28;20896;-78
2022/03/31 11:26:29;;;;;;;19.20;17.30;;;;;;;10.61;65.15;98314.97;5033679;28;20840;-78
2022/03/31 11:28:55;;;;;;;19.13;17.25;;;;;;;10.60;65.39;98310.69;5035159;28;20411;-79
2022/03/31 11:31:22;;;;;;;19.42;16.90;;;;;;;10.73;65.61;98313.44;5035300;28;20432;-78